createdAt,value
2022-11-21T00:00:22.800Z,1.70
2022-11-21T00:02:51.553Z,1.20
2022-11-21T00:05:19.993Z,1.60
2022-11-21T00:07:49.800Z,1.40
2022-11-21T00:10:18.533Z,0.80
2022-11-21T00:12:48.497Z,1.50
2022-11-21T00:15:16.974Z,0.60
2022-11-21T00:17:45.372Z,1.13
2022-11-21T00:20:14.776Z,1.97
2022-11-21T00:22:43.143Z,1.00
2022-11-21T00:25:11.906Z,0.80
2022-11-21T00:27:40.432Z,0.77
2022-11-21T00:30:13.525Z,1.20
2022-11-21T00:32:42.066Z,0.80
2022-11-21T00:35:10.849Z,0.60
2022-11-21T00:37:39.357Z,0.77
2022-11-21T00:40:09.266Z,0.77
2022-11-21T00:42:37.658Z,0.73
2022-11-21T00:45:07.538Z,0.60
2022-11-21T00:47:37.317Z,0.50
2022-11-21T00:50:06.989Z,0.67
2022-11-21T00:52:35.467Z,1.03
2022-11-21T00:55:03.964Z,0.70
2022-11-21T00:57:32.340Z,0.70
2022-11-21T01:00:00.927Z,0.73
2022-11-21T01:02:29.372Z,0.90
2022-11-21T01:04:59.113Z,0.67
2022-11-21T01:07:27.638Z,0.80
2022-11-21T01:09:56.063Z,0.60
2022-11-21T01:12:24.579Z,1.30
2022-11-21T01:14:53.150Z,0.90
2022-11-21T01:17:21.546Z,0.60
2022-11-21T01:19:50.051Z,0.90
2022-11-21T01:22:19.858Z,0.80
2022-11-21T01:24:48.644Z,1.00
2022-11-21T01:27:17.295Z,0.70
2022-11-21T01:29:45.708Z,0.87
2022-11-21T01:32:14.096Z,0.80
2022-11-21T01:34:42.455Z,1.20
2022-11-21T01:37:10.978Z,0.83
2022-11-21T01:39:40.792Z,1.27
2022-11-21T01:42:13.154Z,1.00
2022-11-21T01:44:51.221Z,1.00
2022-11-21T01:47:19.670Z,1.47
2022-11-21T01:49:49.717Z,1.23
2022-11-21T01:52:24.762Z,1.70
2022-11-21T01:54:57.937Z,1.37
2022-11-21T01:57:29.613Z,1.70
2022-11-21T02:00:01.735Z,1.37
2022-11-21T02:02:37.122Z,1.40
2022-11-21T02:05:09.687Z,1.57
2022-11-21T02:07:42.588Z,1.70
2022-11-21T02:10:13.752Z,1.87
2022-11-21T02:12:47.311Z,1.67
2022-11-21T02:15:16.955Z,1.70
2022-11-21T02:17:45.397Z,1.53
2022-11-21T02:20:17.099Z,1.90
2022-11-21T02:22:54.749Z,1.50
2022-11-21T02:25:27.733Z,2.80
2022-11-21T02:28:00.715Z,1.87
2022-11-21T02:30:30.162Z,1.53
2022-11-21T02:32:58.866Z,3.30
2022-11-21T02:35:27.594Z,2.90
2022-11-21T02:38:01.831Z,2.50
2022-11-21T02:40:36.363Z,1.80
2022-11-21T02:43:10.895Z,1.47
2022-11-21T02:45:42.737Z,2.50
2022-11-21T02:48:12.012Z,2.37
2022-11-21T02:50:42.352Z,2.27
2022-11-21T02:53:15.321Z,2.40
2022-11-21T02:55:45.844Z,2.20
2022-11-21T02:58:14.647Z,2.27
2022-11-21T03:00:44.399Z,2.50
2022-11-21T03:03:13.094Z,2.73
2022-11-21T03:05:42.103Z,2.20
2022-11-21T03:08:12.505Z,1.93
2022-11-21T03:10:40.872Z,2.07
2022-11-21T03:13:10.742Z,2.40
2022-11-21T03:15:39.219Z,2.47
2022-11-21T03:18:07.621Z,2.67
2022-11-21T03:20:36.312Z,2.07
2022-11-21T03:23:05.310Z,2.13
2022-11-21T03:25:33.719Z,2.10
2022-11-21T03:28:02.067Z,2.40
2022-11-21T03:30:31.851Z,2.00
2022-11-21T03:33:00.469Z,2.47
2022-11-21T03:35:28.879Z,2.53
2022-11-21T03:37:57.291Z,2.07
2022-11-21T03:40:25.806Z,2.93
2022-11-21T03:42:54.258Z,2.80
2022-11-21T03:45:22.665Z,2.70
2022-11-21T03:47:52.426Z,2.43
2022-11-21T03:50:21.658Z,2.30
2022-11-21T03:52:50.066Z,2.40
2022-11-21T03:55:18.492Z,3.03
2022-11-21T03:57:46.948Z,2.47
2022-11-21T04:00:17.398Z,2.60
2022-11-21T04:02:45.800Z,2.40
2022-11-21T04:05:15.672Z,2.53
2022-11-21T04:07:44.114Z,2.23
2022-11-21T04:10:12.667Z,2.63
2022-11-21T04:12:41.042Z,2.80
2022-11-21T04:15:13.708Z,2.60
2022-11-21T04:17:42.402Z,2.60
2022-11-21T04:20:12.627Z,2.53
2022-11-21T04:22:42.297Z,2.90
2022-11-21T04:25:11.118Z,2.30
2022-11-21T04:27:39.487Z,2.17
2022-11-21T04:30:09.512Z,2.80
2022-11-21T04:32:37.901Z,2.07
2022-11-21T04:35:09.061Z,1.67
2022-11-21T04:37:41.608Z,2.10
2022-11-21T04:40:11.624Z,1.60
2022-11-21T04:42:43.008Z,2.03
2022-11-21T04:45:12.306Z,2.77
2022-11-21T04:47:41.984Z,2.27
2022-11-21T04:50:12.430Z,4.17
2022-11-21T04:52:42.533Z,2.00
2022-11-21T04:55:11.345Z,2.40
2022-11-21T04:57:39.700Z,2.00
2022-11-21T05:00:10.196Z,1.53
2022-11-21T05:02:38.577Z,1.87
2022-11-21T05:05:07.869Z,2.00
2022-11-21T05:07:36.655Z,1.67
2022-11-21T05:10:08.335Z,1.93
2022-11-21T05:12:54.209Z,1.97
2022-11-21T05:15:24.814Z,2.00
2022-11-21T05:17:53.664Z,1.53
2022-11-21T05:20:22.061Z,2.10
2022-11-21T05:22:53.382Z,1.67
2022-11-21T05:25:23.165Z,1.73
2022-11-21T05:27:51.586Z,2.13
2022-11-21T05:30:20.108Z,2.10
2022-11-21T05:32:48.496Z,1.87
2022-11-21T05:35:17.038Z,2.07
2022-11-21T05:37:45.494Z,1.43
2022-11-21T05:40:14.490Z,2.23
2022-11-21T05:43:10.620Z,1.50
2022-11-21T05:45:39.001Z,1.60
2022-11-21T05:48:08.383Z,1.87
2022-11-21T05:50:37.367Z,2.43
2022-11-21T05:53:06.501Z,2.10
2022-11-21T05:55:37.019Z,1.90
2022-11-21T05:58:06.727Z,1.80
2022-11-21T06:00:35.112Z,1.90
2022-11-21T06:03:20.839Z,1.37
2022-11-21T06:05:49.241Z,1.40
2022-11-21T06:08:17.677Z,1.30
2022-11-21T06:10:46.158Z,1.63
2022-11-21T06:13:25.254Z,1.60
2022-11-21T06:15:57.013Z,1.47
2022-11-21T06:18:25.635Z,1.80
2022-11-21T06:20:54.267Z,1.50
2022-11-21T06:23:22.593Z,1.90
2022-11-21T06:25:59.195Z,1.50
2022-11-21T06:28:32.350Z,2.13
2022-11-21T06:31:04.800Z,1.80
2022-11-21T06:33:33.940Z,2.40
2022-11-21T06:36:04.655Z,1.70
2022-11-21T06:38:33.148Z,2.50
2022-11-21T06:41:06.628Z,2.20
2022-11-21T06:43:36.461Z,2.23
2022-11-21T06:46:05.560Z,2.30
2022-11-21T06:48:34.428Z,1.50
2022-11-21T06:51:06.541Z,2.50
2022-11-21T06:53:35.216Z,1.63
2022-11-21T06:56:04.874Z,2.60
2022-11-21T06:58:35.181Z,2.93
2022-11-21T07:01:06.731Z,3.37
2022-11-21T07:03:35.557Z,1.80
2022-11-21T07:06:05.042Z,2.40
2022-11-21T07:08:36.396Z,1.40
2022-11-21T07:13:56.577Z,2.00
2022-11-21T07:16:26.343Z,2.10
2022-11-21T07:18:54.936Z,2.33
2022-11-21T07:21:23.366Z,2.10
2022-11-21T07:23:51.750Z,1.80
2022-11-21T07:26:20.146Z,2.00
2022-11-21T07:28:48.652Z,1.90
2022-11-21T07:31:18.582Z,1.70
2022-11-21T07:33:48.014Z,2.10
2022-11-21T07:36:16.511Z,3.03
2022-11-21T07:38:47.346Z,1.60
2022-11-21T07:41:15.662Z,1.97
2022-11-21T07:43:44.053Z,1.80
2022-11-21T07:46:12.485Z,1.87
2022-11-21T07:48:47.165Z,1.73
2022-11-21T07:51:15.913Z,1.87
2022-11-21T07:53:44.436Z,2.17
2022-11-21T07:56:12.841Z,2.17
2022-11-21T07:58:41.798Z,2.90
2022-11-21T08:01:10.420Z,1.93
2022-11-21T08:03:38.803Z,2.70
2022-11-21T08:06:08.605Z,2.93
2022-11-21T08:08:36.951Z,2.60
2022-11-21T08:11:06.904Z,2.80
2022-11-21T08:13:35.699Z,1.93
2022-11-21T08:16:05.140Z,2.17
2022-11-21T08:18:33.770Z,2.10
2022-11-21T08:21:03.603Z,2.60
2022-11-21T08:23:33.846Z,1.53
2022-11-21T08:26:02.250Z,1.70
2022-11-21T08:28:30.835Z,2.03
2022-11-21T08:30:59.314Z,2.57
2022-11-21T08:33:27.673Z,1.57
2022-11-21T08:35:56.090Z,2.30
2022-11-21T08:38:24.455Z,2.37
2022-11-21T08:41:17.677Z,2.07
2022-11-21T08:43:46.402Z,2.30
2022-11-21T08:46:14.794Z,2.47
2022-11-21T08:48:43.201Z,2.13
2022-11-21T08:51:11.565Z,1.83
2022-11-21T08:53:39.967Z,2.03
2022-11-21T08:56:09.759Z,2.10
2022-11-21T08:58:38.165Z,2.10
2022-11-21T09:01:06.571Z,2.27
2022-11-21T09:03:35.358Z,2.23
2022-11-21T09:06:03.776Z,2.27
2022-11-21T09:08:32.305Z,2.10
2022-11-21T09:11:05.453Z,2.37
2022-11-21T09:13:36.126Z,2.10
2022-11-21T09:16:22.800Z,2.20
2022-11-21T09:18:53.821Z,1.93
2022-11-21T09:21:22.830Z,1.83
2022-11-21T09:23:51.223Z,3.13
2022-11-21T09:26:19.599Z,2.50
2022-11-21T09:28:49.390Z,2.40
2022-11-21T09:31:17.804Z,2.20
2022-11-21T09:33:48.676Z,2.27
2022-11-21T09:36:19.366Z,1.80
2022-11-21T09:38:47.770Z,2.40
2022-11-21T09:41:51.982Z,3.20
2022-11-21T09:44:47.106Z,2.30
2022-11-21T09:47:24.715Z,1.90
2022-11-21T09:50:01.351Z,2.67
2022-11-21T09:52:38.712Z,2.30
2022-11-21T09:55:18.119Z,3.20
2022-11-21T09:57:50.188Z,1.70
2022-11-21T10:00:23.476Z,2.53
2022-11-21T10:02:53.127Z,2.10
2022-11-21T10:05:33.934Z,1.53
2022-11-21T10:08:14.539Z,1.80
2022-11-21T10:10:55.763Z,1.90
2022-11-21T10:13:44.415Z,1.60
2022-11-21T10:16:23.664Z,1.73
2022-11-21T10:19:39.139Z,2.30
2022-11-21T10:22:28.683Z,1.83
2022-11-21T10:25:00.647Z,2.03
2022-11-21T10:27:37.896Z,1.70
2022-11-21T10:30:14.582Z,1.90
2022-11-21T10:32:47.795Z,2.00
2022-11-21T10:35:20.707Z,1.97
2022-11-21T10:37:53.074Z,1.93
2022-11-21T10:40:37.963Z,1.73
2022-11-21T10:43:29.508Z,2.17
2022-11-21T10:45:57.942Z,2.40
2022-11-21T10:48:27.758Z,1.63
2022-11-21T10:51:13.763Z,1.97
2022-11-21T10:54:04.577Z,1.80
2022-11-21T10:56:36.452Z,1.30
2022-11-21T10:59:29.822Z,1.57
2022-11-21T11:02:01.243Z,2.00
2022-11-21T11:04:40.687Z,1.70
2022-11-21T11:07:26.880Z,1.80
2022-11-21T11:10:18.927Z,2.00
2022-11-21T11:13:30.773Z,1.33
2022-11-21T11:16:05.234Z,1.60
2022-11-21T11:18:36.325Z,1.50
2022-11-21T11:21:19.809Z,1.50
2022-11-21T11:23:50.596Z,2.13
2022-11-21T11:26:29.075Z,1.40
2022-11-21T11:29:10.864Z,1.30
2022-11-21T11:31:45.865Z,2.57
2022-11-21T11:34:16.099Z,2.47
2022-11-21T11:36:57.667Z,1.80
2022-11-21T11:39:40.771Z,1.60
2022-11-21T11:42:57.819Z,1.40
2022-11-21T11:46:12.521Z,2.07
2022-11-21T11:49:11.004Z,1.57
2022-11-21T11:51:36.416Z,1.30
2022-11-21T11:54:14.044Z,1.60
2022-11-21T11:56:45.145Z,2.40
2022-11-21T11:59:21.859Z,1.73
2022-11-21T12:01:56.999Z,1.53
2022-11-21T12:04:29.606Z,1.80
2022-11-21T12:08:20.143Z,1.70
2022-11-21T12:10:00.774Z,1.57
2022-11-21T12:12:37.738Z,1.27
2022-11-21T12:15:34.122Z,1.00
2022-11-21T12:18:16.729Z,1.63
2022-11-21T12:20:56.894Z,1.20
2022-11-21T12:23:29.442Z,1.80
2022-11-21T12:26:26.803Z,1.40
2022-11-21T12:29:09.140Z,2.10
2022-11-21T12:31:51.477Z,1.63
2022-11-21T12:34:35.947Z,1.50
2022-11-21T12:37:19.274Z,2.73
2022-11-21T12:40:01.625Z,2.13
2022-11-21T12:42:51.572Z,1.13
2022-11-21T12:45:32.391Z,1.60
2022-11-21T12:48:43.247Z,0.90
2022-11-21T12:52:06.911Z,1.53
2022-11-21T12:55:02.020Z,1.93
2022-11-21T12:57:57.245Z,1.40
2022-11-21T13:00:35.766Z,1.30
2022-11-21T13:03:40.687Z,2.00
2022-11-21T13:06:17.879Z,1.40
2022-11-21T13:08:48.739Z,2.20
2022-11-21T13:11:50.939Z,1.80
2022-11-21T13:14:31.116Z,1.60
2022-11-21T13:17:21.199Z,1.87
2022-11-21T13:19:56.948Z,1.73
2022-11-21T13:22:54.413Z,1.63
2022-11-21T13:25:48.625Z,1.00
2022-11-21T13:28:37.719Z,2.00
2022-11-21T13:31:31.211Z,1.60
2022-11-21T13:34:00.397Z,1.27
2022-11-21T13:36:43.252Z,1.30
2022-11-21T13:39:30.962Z,1.40
2022-11-21T13:42:30.998Z,1.50
2022-11-21T13:45:00.211Z,1.20
2022-11-21T13:48:05.495Z,1.50
2022-11-21T13:51:11.656Z,1.80
2022-11-21T13:54:31.648Z,1.57
2022-11-21T13:57:17.570Z,1.43
2022-11-21T14:00:03.702Z,1.30
2022-11-21T14:03:11.703Z,1.87
2022-11-21T14:06:14.665Z,1.70
2022-11-21T14:08:43.839Z,2.50
2022-11-21T14:11:38.390Z,2.20
2022-11-21T14:14:06.867Z,1.70
2022-11-21T14:16:43.947Z,2.30
2022-11-21T14:19:16.016Z,2.00
2022-11-21T14:21:47.465Z,1.40
2022-11-21T14:24:20.307Z,1.97
2022-11-21T14:26:52.275Z,1.80
2022-11-21T14:29:27.009Z,1.60
2022-11-21T14:31:56.770Z,1.63
2022-11-21T14:34:29.778Z,2.13
2022-11-21T14:37:04.724Z,1.73
2022-11-21T14:39:39.032Z,1.90
2022-11-21T14:42:15.112Z,2.57
2022-11-21T14:44:44.611Z,1.97
2022-11-21T14:47:26.380Z,2.00
2022-11-21T14:50:00.845Z,2.03
2022-11-21T14:52:34.334Z,1.93
2022-11-21T14:55:29.261Z,1.97
2022-11-21T14:57:57.554Z,1.73
2022-11-21T15:03:24.249Z,2.23
2022-11-21T15:06:07.788Z,2.37
2022-11-21T15:09:18.315Z,2.07
2022-11-21T15:11:36.047Z,2.30
2022-11-21T15:14:16.457Z,2.13
2022-11-21T15:16:47.630Z,1.97
2022-11-21T15:19:23.182Z,2.07
2022-11-21T15:21:52.572Z,1.83
2022-11-21T15:24:33.221Z,2.60
2022-11-21T15:27:53.445Z,2.00
2022-11-21T15:30:26.846Z,2.57
2022-11-21T15:33:17.355Z,2.73
2022-11-21T15:36:15.115Z,2.50
2022-11-21T15:39:00.287Z,1.80
2022-11-21T15:41:32.824Z,2.20
2022-11-21T15:44:39.443Z,2.57
2022-11-21T15:47:09.860Z,2.97
2022-11-21T15:49:38.345Z,2.07
2022-11-21T15:52:13.149Z,2.80
2022-11-21T15:54:41.627Z,2.03
2022-11-21T15:57:12.053Z,3.40
2022-11-21T15:59:40.512Z,3.17
2022-11-21T16:02:13.601Z,3.57
2022-11-21T16:04:42.042Z,3.70
2022-11-21T16:07:10.786Z,3.53
2022-11-21T16:09:40.917Z,3.30
2022-11-21T16:12:12.014Z,3.50
2022-11-21T16:14:40.466Z,3.90
2022-11-21T16:17:09.405Z,3.40
2022-11-21T16:19:37.798Z,3.27
2022-11-21T16:22:06.083Z,4.83
2022-11-21T16:24:34.601Z,4.00
2022-11-21T16:27:02.983Z,4.97
2022-11-21T16:29:32.743Z,3.93
2022-11-21T16:32:01.209Z,3.97
2022-11-21T16:34:29.894Z,4.00
2022-11-21T16:37:02.816Z,3.00
2022-11-21T16:39:34.715Z,2.93
2022-11-21T16:42:03.473Z,3.33
2022-11-21T16:44:33.311Z,3.43
2022-11-21T16:47:07.846Z,3.30
2022-11-21T16:49:42.866Z,3.23
2022-11-21T16:52:11.650Z,3.57
2022-11-21T16:54:40.346Z,2.80
2022-11-21T16:57:08.831Z,3.20
2022-11-21T16:59:38.741Z,3.87
2022-11-21T17:02:07.165Z,4.00
2022-11-21T17:04:37.469Z,3.90
2022-11-21T17:07:05.951Z,3.97
2022-11-21T17:09:35.001Z,4.23
2022-11-21T17:12:03.455Z,4.30
2022-11-21T17:14:32.206Z,3.80
2022-11-21T17:17:01.963Z,3.97
2022-11-21T17:19:30.379Z,4.47
2022-11-21T17:22:00.199Z,4.57
2022-11-21T17:24:28.751Z,5.33
2022-11-21T17:27:00.537Z,4.90
2022-11-21T17:29:29.089Z,4.70
2022-11-21T17:31:57.892Z,5.57
2022-11-21T17:34:32.712Z,4.83
2022-11-21T17:37:01.557Z,5.17
2022-11-21T17:39:30.477Z,4.53
2022-11-21T17:41:59.993Z,4.23
2022-11-21T17:44:28.703Z,3.93
2022-11-21T17:46:59.253Z,3.33
2022-11-21T17:49:37.040Z,3.93
2022-11-21T17:52:08.575Z,3.77
2022-11-21T17:54:37.178Z,4.00
2022-11-21T17:57:05.618Z,2.90
2022-11-21T17:59:34.782Z,4.40
2022-11-21T18:02:03.337Z,4.23
2022-11-21T18:04:34.444Z,4.33
2022-11-21T18:07:03.468Z,4.53
2022-11-21T18:09:31.974Z,4.17
2022-11-21T18:12:00.426Z,4.60
2022-11-21T18:14:29.062Z,4.03
2022-11-21T18:16:57.842Z,4.10
2022-11-21T18:19:26.242Z,5.27
2022-11-21T18:21:56.378Z,4.80
2022-11-21T18:24:24.799Z,4.53
2022-11-21T18:26:53.222Z,4.47
2022-11-21T18:29:40.021Z,4.53
2022-11-21T18:32:08.359Z,4.20
2022-11-21T18:34:36.757Z,4.73
2022-11-21T18:37:06.504Z,4.23
2022-11-21T18:39:34.896Z,3.50
2022-11-21T18:42:03.217Z,4.17
2022-11-21T18:44:31.558Z,4.17
2022-11-21T18:46:59.902Z,4.27
2022-11-21T18:49:28.540Z,4.00
2022-11-21T18:51:57.850Z,4.20
2022-11-21T18:54:27.567Z,4.33
2022-11-21T18:56:57.104Z,4.00
2022-11-21T18:59:25.481Z,3.13
2022-11-21T19:01:53.949Z,4.00
2022-11-21T19:04:22.429Z,4.30
2022-11-21T19:06:50.774Z,3.27
2022-11-21T19:09:19.086Z,3.77
2022-11-21T19:11:49.040Z,3.93
2022-11-21T19:14:17.365Z,3.40
2022-11-21T19:16:45.640Z,3.90
2022-11-21T19:22:04.757Z,4.50
2022-11-21T19:24:33.433Z,3.27
2022-11-21T19:27:03.379Z,3.97
2022-11-21T19:29:33.077Z,3.60
2022-11-21T19:32:01.408Z,3.63
2022-11-21T19:34:29.771Z,3.17
2022-11-21T19:36:58.108Z,3.50
2022-11-21T19:39:27.003Z,3.70
2022-11-21T19:41:55.665Z,3.07
2022-11-21T19:44:25.532Z,3.43
2022-11-21T19:46:54.051Z,3.07
2022-11-21T19:49:22.509Z,3.60
2022-11-21T19:51:50.856Z,2.87
2022-11-21T19:54:19.243Z,3.33
2022-11-21T19:56:47.662Z,3.43
2022-11-21T19:59:16.358Z,3.20
2022-11-21T20:01:52.176Z,2.63
2022-11-21T20:04:21.315Z,2.90
2022-11-21T20:06:49.847Z,2.30
2022-11-21T20:09:21.761Z,2.50
2022-11-21T20:11:53.306Z,3.17
2022-11-21T20:14:23.072Z,3.50
2022-11-21T20:16:54.139Z,3.23
2022-11-21T20:19:25.038Z,3.33
2022-11-21T20:21:53.918Z,3.37
2022-11-21T20:24:22.390Z,3.50
2022-11-21T20:26:50.826Z,2.73
2022-11-21T20:29:19.168Z,2.83
2022-11-21T20:31:48.506Z,3.23
2022-11-21T20:34:18.459Z,3.00
2022-11-21T20:36:47.398Z,3.67
2022-11-21T20:39:18.039Z,3.20
2022-11-21T20:42:05.387Z,2.63
2022-11-21T20:45:29.989Z,3.30
2022-11-21T20:47:22.016Z,2.60
2022-11-21T20:49:53.031Z,2.93
2022-11-21T20:55:14.440Z,2.30
2022-11-21T20:57:43.039Z,2.73
2022-11-21T21:00:13.554Z,2.50
2022-11-21T21:02:41.929Z,3.20
2022-11-21T21:05:11.892Z,2.67
2022-11-21T21:07:40.324Z,2.37
2022-11-21T21:10:11.065Z,3.40
2022-11-21T21:12:43.148Z,2.97
2022-11-21T21:15:14.374Z,2.33
2022-11-21T21:17:43.285Z,3.03
2022-11-21T21:20:13.537Z,2.53
2022-11-21T21:22:41.874Z,2.27
2022-11-21T21:25:10.913Z,2.60
2022-11-21T21:27:39.287Z,2.90
2022-11-21T21:30:09.666Z,3.03
2022-11-21T21:32:38.235Z,3.17
2022-11-21T21:35:10.472Z,3.10
2022-11-21T21:37:40.183Z,2.70
2022-11-21T21:40:10.446Z,2.30
2022-11-21T21:42:38.752Z,2.40
2022-11-21T21:45:08.558Z,3.70
2022-11-21T21:47:38.154Z,2.20
2022-11-21T21:50:12.826Z,2.50
2022-11-21T21:52:45.464Z,2.67
2022-11-21T21:55:13.878Z,2.90
2022-11-21T21:57:48.327Z,2.77
2022-11-21T22:00:19.828Z,2.70
2022-11-21T22:02:48.177Z,3.23
2022-11-21T22:05:16.803Z,2.70
2022-11-21T22:07:46.638Z,2.73
2022-11-21T22:10:15.257Z,3.03
2022-11-21T22:12:44.334Z,2.80
2022-11-21T22:15:12.897Z,2.70
2022-11-21T22:17:41.253Z,3.50
2022-11-21T22:20:11.135Z,2.80
2022-11-21T22:22:39.517Z,3.07
2022-11-21T22:25:10.382Z,3.20
2022-11-21T22:27:38.778Z,3.43
2022-11-21T22:30:10.599Z,3.43
2022-11-21T22:32:38.993Z,2.90
2022-11-21T22:35:08.385Z,2.80
2022-11-21T22:37:36.758Z,3.07
2022-11-21T22:40:06.154Z,2.90
2022-11-21T22:42:36.083Z,3.00
2022-11-21T22:45:04.494Z,3.80
2022-11-21T22:47:32.796Z,4.37
2022-11-21T22:50:04.462Z,3.70
2022-11-21T22:52:32.948Z,2.70
2022-11-21T22:55:01.457Z,3.40
2022-11-21T22:57:29.893Z,2.67
2022-11-21T22:59:59.690Z,2.93
2022-11-21T23:02:28.097Z,2.73
2022-11-21T23:04:59.346Z,3.13
2022-11-21T23:07:29.721Z,2.60
2022-11-21T23:09:58.255Z,3.37
2022-11-21T23:12:27.651Z,3.90
2022-11-21T23:14:56.078Z,3.30
2022-11-21T23:17:25.808Z,2.73
2022-11-21T23:19:54.206Z,3.13
2022-11-21T23:22:22.610Z,2.90
2022-11-21T23:24:51.188Z,3.13
2022-11-21T23:27:19.506Z,3.13
2022-11-21T23:29:48.261Z,2.47
2022-11-21T23:32:17.125Z,3.07
2022-11-21T23:34:46.806Z,3.33
2022-11-21T23:37:15.134Z,3.10
2022-11-21T23:39:43.511Z,3.07
2022-11-21T23:42:11.889Z,3.77
2022-11-21T23:44:40.216Z,3.10
2022-11-21T23:47:11.224Z,2.90
2022-11-21T23:49:39.546Z,2.90
2022-11-21T23:52:09.269Z,3.20
2022-11-21T23:54:37.627Z,3.00
2022-11-21T23:57:06.050Z,3.43
2022-11-21T23:59:34.381Z,2.83
